Time;durP1;ratioP1;P1;durP2;ratioP2;P2;SDS_P1;SDS_P2;PMS_P1;PMS_P2;Temp;Humidity;BMP_temperature;BMP_pressure;BME280_temperature;BME280_humidity;BME280_pressure;Samples;Min_cycle;Max_cycle;Signal;HPM_P1;HPM_P2
2022/09/28 00:00:10;;;;;;;;;2.25;1.75;;;;;;;;5104484;27;63087;-84
2022/09/28 00:02:35;;;;;;;;;0.00;0.00;;;;;;;;5104918;27;61766;-84
2022/09/28 00:05:01;;;;;;;;;4.00;0.00;;;;;;;;5105082;27;61714;-84
2022/09/28 00:07:27;;;;;;;;;0.25;0.25;;;;;;;;5105499;27;61830;-84
2022/09/28 00:09:52;;;;;;;;;0.00;0.00;;;;;;;;5104843;27;61916;-84
2022/09/28 00:12:18;;;;;;;;;2.00;0.75;;;;;;;;5105240;27;61914;-84
2022/09/28 00:14:44;;;;;;;;;1.00;1.00;;;;;;;;5105084;27;62298;-84
2022/09/28 00:17:11;;;;;;;;;1.00;0.25;;;;;;;;5103681;27;61965;-84
2022/09/28 00:19:37;;;;;;;;;0.00;0.00;;;;;;;;5104576;27;62160;-84
2022/09/28 00:22:03;;;;;;;;;4.50;1.00;;;;;;;;5104783;27;61911;-84
2022/09/28 00:24:29;;;;;;;;;0.00;0.00;;;;;;;;5104832;27;61900;-84
2022/09/28 00:26:55;;;;;;;;;0.25;0.00;;;;;;;;5105028;27;61830;-84
2022/09/28 00:29:27;;;;;;;;;0.25;0.25;;;;;;;;5104235;27;62965;-84
2022/09/28 00:31:58;;;;;;;;;0.00;0.00;;;;;;;;5104610;27;61805;-84
2022/09/28 00:34:24;;;;;;;;;0.00;0.00;;;;;;;;5104847;27;62023;-84
2022/09/28 00:36:49;;;;;;;;;2.00;0.00;;;;;;;;5104891;27;61797;-84
2022/09/28 00:39:15;;;;;;;;;0.00;0.00;;;;;;;;5103878;27;61740;-84
2022/09/28 00:41:41;;;;;;;;;0.50;0.50;;;;;;;;5103482;27;61934;-84
2022/09/28 00:44:21;;;;;;;;;0.75;0.75;;;;;;;;5104225;27;62013;-84
2022/09/28 00:46:47;;;;;;;;;3.00;1.50;;;;;;;;5104766;27;62112;-84
2022/09/28 00:49:16;;;;;;;;;3.00;0.00;;;;;;;;5102491;27;63951;-84
2022/09/28 00:51:43;;;;;;;;;0.00;0.00;;;;;;;;5104431;27;61932;-84
2022/09/28 00:54:09;;;;;;;;;0.00;0.00;;;;;;;;5104321;27;61709;-84
2022/09/28 00:56:39;;;;;;;;;0.00;0.00;;;;;;;;5104721;27;61967;-84
2022/09/28 00:59:07;;;;;;;;;0.00;0.00;;;;;;;;5103766;27;62071;-84
2022/09/28 01:01:32;;;;;;;;;0.00;0.00;;;;;;;;5101586;27;61902;-84
2022/09/28 01:03:57;;;;;;;;;0.00;0.00;;;;;;;;5104388;27;62076;-84
2022/09/28 01:06:29;;;;;;;;;0.00;0.00;;;;;;;;5104578;27;62153;-84
2022/09/28 01:08:57;;;;;;;;;0.50;0.50;;;;;;;;5103814;27;62649;-84
2022/09/28 01:11:23;;;;;;;;;2.00;0.50;;;;;;;;5103724;27;61838;-84
2022/09/28 01:13:50;;;;;;;;;3.00;0.00;;;;;;;;5104238;27;61943;-84
2022/09/28 01:16:23;;;;;;;;;2.50;1.00;;;;;;;;5104335;27;61774;-83
2022/09/28 01:19:02;;;;;;;;;1.00;1.00;;;;;;;;5103290;27;63180;-84
2022/09/28 01:21:27;;;;;;;;;0.00;0.00;;;;;;;;5103843;27;62019;-84
2022/09/28 01:23:56;;;;;;;;;3.00;0.25;;;;;;;;5103945;27;61687;-84
2022/09/28 01:26:24;;;;;;;;;0.00;0.00;;;;;;;;5103744;27;61760;-84
2022/09/28 01:28:53;;;;;;;;;1.00;1.00;;;;;;;;5103397;27;61810;-84
2022/09/28 01:31:20;;;;;;;;;3.50;1.00;;;;;;;;5103764;27;61844;-84
2022/09/28 01:33:59;;;;;;;;;2.00;1.00;;;;;;;;5103787;27;62134;-84
2022/09/28 01:36:27;;;;;;;;;0.00;0.00;;;;;;;;5104030;27;62094;-84
2022/09/28 01:38:54;;;;;;;;;1.00;1.00;;;;;;;;5102855;27;63047;-84
2022/09/28 01:41:21;;;;;;;;;1.00;0.25;;;;;;;;5102008;27;62142;-84
2022/09/28 01:44:01;;;;;;;;;3.25;0.75;;;;;;;;5103815;27;61886;-84
2022/09/28 01:46:32;;;;;;;;;1.00;1.00;;;;;;;;5103965;27;61983;-84
2022/09/28 01:49:01;;;;;;;;;1.00;1.00;;;;;;;;5102873;27;63116;-84
2022/09/28 01:51:35;;;;;;;;;2.00;0.50;;;;;;;;5103504;27;62095;-84
2022/09/28 01:54:02;;;;;;;;;1.00;1.00;;;;;;;;5102255;27;61809;-84
2022/09/28 01:56:49;;;;;;;;;1.25;0.25;;;;;;;;5103619;27;61790;-84
2022/09/28 01:59:18;;;;;;;;;6.00;1.00;;;;;;;;5102931;27;62163;-84
2022/09/28 02:01:50;;;;;;;;;2.75;0.25;;;;;;;;5103019;27;62055;-83
2022/09/28 02:04:31;;;;;;;;;1.75;0.00;;;;;;;;5103230;27;62288;-84
2022/09/28 02:07:01;;;;;;;;;0.50;0.50;;;;;;;;5103743;27;62137;-84
2022/09/28 02:09:54;;;;;;;;;1.75;0.50;;;;;;;;5102216;27;62135;-84
2022/09/28 02:12:24;;;;;;;;;2.00;1.00;;;;;;;;5100926;27;61896;-84
2022/09/28 02:14:51;;;;;;;;;3.50;0.75;;;;;;;;5103284;27;61870;-84
2022/09/28 02:17:17;;;;;;;;;0.00;0.00;;;;;;;;5103207;27;62249;-84
2022/09/28 02:19:43;;;;;;;;;2.00;2.00;;;;;;;;5102616;27;62174;-84
2022/09/28 02:22:27;;;;;;;;;3.00;2.00;;;;;;;;5103139;27;61781;-84
2022/09/28 02:24:54;;;;;;;;;1.50;1.00;;;;;;;;5102496;27;62367;-84
2022/09/28 02:27:33;;;;;;;;;2.00;1.00;;;;;;;;5101759;27;61898;-84
2022/09/28 02:29:58;;;;;;;;;1.25;0.25;;;;;;;;5102583;27;61959;-83
2022/09/28 02:32:25;;;;;;;;;1.75;0.50;;;;;;;;5102207;27;61878;-83
2022/09/28 02:34:50;;;;;;;;;0.00;0.00;;;;;;;;5103339;27;61904;-84
2022/09/28 02:37:15;;;;;;;;;1.50;1.00;;;;;;;;5102986;27;61776;-83
2022/09/28 02:39:40;;;;;;;;;2.00;1.00;;;;;;;;5102006;27;61779;-84
2022/09/28 02:42:09;;;;;;;;;3.00;0.75;;;;;;;;5102919;27;61948;-83
2022/09/28 02:44:37;;;;;;;;;2.25;1.50;;;;;;;;5102557;27;62065;-84
2022/09/28 02:47:09;;;;;;;;;0.75;0.75;;;;;;;;5102940;27;62003;-84
2022/09/28 02:49:37;;;;;;;;;0.75;0.00;;;;;;;;5101986;27;61809;-84
2022/09/28 02:52:12;;;;;;;;;3.50;2.00;;;;;;;;5102641;27;61921;-84
2022/09/28 02:55:06;;;;;;;;;1.00;1.00;;;;;;;;5102309;27;62472;-84
2022/09/28 02:57:50;;;;;;;;;1.00;0.00;;;;;;;;5102529;27;61776;-84
2022/09/28 03:00:20;;;;;;;;;0.50;0.50;;;;;;;;5102138;27;61967;-84
2022/09/28 03:02:45;;;;;;;;;1.50;1.50;;;;;;;;5101972;27;61700;-84
2022/09/28 03:05:13;;;;;;;;;2.50;2.00;;;;;;;;5102749;27;61774;-84
2022/09/28 03:07:57;;;;;;;;;0.50;0.50;;;;;;;;5102403;27;62182;-84
2022/09/28 03:10:25;;;;;;;;;0.25;0.25;;;;;;;;5100633;27;64603;-84
2022/09/28 03:12:51;;;;;;;;;0.00;0.00;;;;;;;;5102438;27;62328;-84
2022/09/28 03:15:20;;;;;;;;;1.75;1.75;;;;;;;;5102751;27;61814;-84
2022/09/28 03:17:45;;;;;;;;;3.00;2.25;;;;;;;;5102225;27;62075;-84
2022/09/28 03:20:10;;;;;;;;;1.00;1.00;;;;;;;;5101903;27;61731;-84
2022/09/28 03:22:36;;;;;;;;;0.00;0.00;;;;;;;;5102066;27;61807;-84
2022/09/28 03:25:01;;;;;;;;;1.00;1.00;;;;;;;;5105024;27;61861;-83
2022/09/28 03:27:26;;;;;;;;;1.50;1.00;;;;;;;;5106133;27;61873;-83
2022/09/28 03:29:52;;;;;;;;;2.25;1.00;;;;;;;;5105536;27;61863;-83
2022/09/28 03:32:17;;;;;;;;;0.00;0.00;;;;;;;;5105710;27;61810;-83
2022/09/28 03:34:42;;;;;;;;;1.25;1.25;;;;;;;;5105848;27;61754;-84
2022/09/28 03:37:08;;;;;;;;;2.00;1.00;;;;;;;;5105811;27;61916;-83
2022/09/28 03:39:33;;;;;;;;;1.00;1.00;;;;;;;;5103563;27;64746;-83
2022/09/28 03:42:01;;;;;;;;;1.50;1.50;;;;;;;;5105770;27;61863;-83
2022/09/28 03:44:27;;;;;;;;;1.50;0.25;;;;;;;;5105566;27;61744;-83
2022/09/28 03:46:52;;;;;;;;;2.00;1.00;;;;;;;;5105518;27;61721;-83
2022/09/28 03:49:17;;;;;;;;;3.25;1.00;;;;;;;;5105244;27;62100;-83
2022/09/28 03:51:42;;;;;;;;;1.00;1.00;;;;;;;;5105253;27;61958;-83
2022/09/28 03:54:08;;;;;;;;;3.75;1.00;;;;;;;;5105237;27;61958;-83
2022/09/28 03:56:33;;;;;;;;;3.50;1.75;;;;;;;;5105918;27;61708;-83
2022/09/28 03:58:58;;;;;;;;;2.75;2.75;;;;;;;;5104579;27;61794;-84
2022/09/28 04:01:23;;;;;;;;;1.75;1.50;;;;;;;;5103885;27;61920;-83
2022/09/28 04:03:53;;;;;;;;;1.00;1.00;;;;;;;;5104658;27;61901;-84
2022/09/28 04:06:18;;;;;;;;;2.50;2.50;;;;;;;;5105529;27;61749;-84
2022/09/28 04:08:43;;;;;;;;;3.00;1.75;;;;;;;;5104574;27;62111;-83
2022/09/28 04:11:09;;;;;;;;;5.75;1.00;;;;;;;;5105488;27;62165;-83
2022/09/28 04:13:36;;;;;;;;;4.50;2.25;;;;;;;;5105136;27;61903;-83
2022/09/28 04:16:05;;;;;;;;;3.00;2.00;;;;;;;;5105406;27;62026;-83
2022/09/28 04:18:32;;;;;;;;;7.00;2.75;;;;;;;;5104560;27;61920;-83
2022/09/28 04:21:07;;;;;;;;;2.50;2.00;;;;;;;;5104810;27;61983;-84
2022/09/28 04:23:33;;;;;;;;;2.00;2.00;;;;;;;;5104779;27;61970;-83
2022/09/28 04:25:59;;;;;;;;;4.50;2.50;;;;;;;;5105125;27;62108;-83
2022/09/28 04:31:27;;;;;;;;;3.75;1.25;;;;;;;;5104846;27;62155;-83
2022/09/28 04:33:53;;;;;;;;;1.50;1.50;;;;;;;;5104099;27;61922;-84
2022/09/28 04:36:18;;;;;;;;;1.00;1.00;;;;;;;;5102599;27;62208;-83
2022/09/28 04:38:44;;;;;;;;;2.00;2.00;;;;;;;;5103727;27;61947;-83
2022/09/28 04:41:10;;;;;;;;;1.00;1.00;;;;;;;;5104934;27;62225;-83
2022/09/28 04:43:36;;;;;;;;;2.75;1.75;;;;;;;;5104769;27;62096;-83
2022/09/28 04:46:01;;;;;;;;;6.50;1.50;;;;;;;;5104793;27;61827;-83
2022/09/28 04:48:27;;;;;;;;;5.25;2.75;;;;;;;;5103480;27;63324;-83
2022/09/28 04:50:56;;;;;;;;;2.00;2.00;;;;;;;;5104431;27;61918;-83
2022/09/28 04:53:22;;;;;;;;;5.00;4.00;;;;;;;;5104186;27;61863;-84
2022/09/28 04:55:58;;;;;;;;;3.00;3.00;;;;;;;;5104667;27;61789;-83
2022/09/28 04:58:23;;;;;;;;;3.00;3.00;;;;;;;;5103634;27;63500;-83
2022/09/28 05:00:50;;;;;;;;;5.00;3.00;;;;;;;;5104234;27;61839;-83
2022/09/28 05:03:16;;;;;;;;;2.00;2.00;;;;;;;;5103760;27;62000;-83
2022/09/28 05:05:44;;;;;;;;;3.75;3.00;;;;;;;;5104567;27;61930;-84
2022/09/28 05:08:10;;;;;;;;;1.75;1.00;;;;;;;;5103758;27;62140;-84
2022/09/28 05:10:35;;;;;;;;;4.00;3.00;;;;;;;;5104558;27;61706;-84
2022/09/28 05:13:01;;;;;;;;;2.00;2.00;;;;;;;;5104284;27;61799;-85
2022/09/28 05:15:26;;;;;;;;;4.00;3.00;;;;;;;;5104154;27;61770;-84
2022/09/28 05:17:52;;;;;;;;;5.75;3.00;;;;;;;;5103033;27;63084;-84
2022/09/28 05:20:17;;;;;;;;;1.25;1.25;;;;;;;;5104212;27;61721;-83
2022/09/28 05:22:42;;;;;;;;;6.50;2.25;;;;;;;;5104029;27;62010;-83
2022/09/28 05:25:08;;;;;;;;;4.00;2.25;;;;;;;;5103728;27;61686;-85
2022/09/28 05:27:33;;;;;;;;;2.00;2.00;;;;;;;;5103311;27;61802;-85
2022/09/28 05:29:58;;;;;;;;;2.75;1.50;;;;;;;;5104082;27;62039;-85
2022/09/28 05:32:23;;;;;;;;;2.50;2.50;;;;;;;;5103428;27;62066;-85
2022/09/28 05:34:49;;;;;;;;;2.75;1.50;;;;;;;;5104033;27;61819;-84
2022/09/28 05:37:14;;;;;;;;;3.50;3.00;;;;;;;;5102933;27;61969;-86
2022/09/28 05:39:39;;;;;;;;;2.00;2.00;;;;;;;;5097391;27;62154;-88
2022/09/28 05:42:06;;;;;;;;;2.75;2.00;;;;;;;;5099631;27;62027;-88
2022/09/28 05:44:32;;;;;;;;;3.25;2.00;;;;;;;;5100485;27;61668;-89
2022/09/28 05:46:57;;;;;;;;;4.50;3.75;;;;;;;;5099587;27;64959;-89
2022/09/28 05:49:22;;;;;;;;;1.75;1.00;;;;;;;;5101830;27;61790;-89
2022/09/28 05:51:48;;;;;;;;;2.50;2.00;;;;;;;;5102259;27;62468;-84
2022/09/28 05:54:13;;;;;;;;;3.75;2.75;;;;;;;;5101511;27;61792;-83
2022/09/28 05:56:38;;;;;;;;;2.25;2.25;;;;;;;;5102313;27;61901;-84
2022/09/28 05:59:05;;;;;;;;;2.00;2.00;;;;;;;;5102972;27;62034;-84
2022/09/28 06:01:30;;;;;;;;;3.75;2.75;;;;;;;;5102967;27;61709;-84
2022/09/28 06:03:55;;;;;;;;;0.50;0.00;;;;;;;;5102827;27;61780;-84
2022/09/28 06:06:20;;;;;;;;;6.25;2.00;;;;;;;;5102899;27;62100;-83
2022/09/28 06:08:47;;;;;;;;;3.00;1.75;;;;;;;;5103050;27;61902;-83
2022/09/28 06:11:12;;;;;;;;;4.50;4.50;;;;;;;;5103235;27;61839;-83
2022/09/28 06:13:38;;;;;;;;;18.75;17.00;;;;;;;;5102835;27;61746;-83
2022/09/28 06:16:06;;;;;;;;;3.00;2.25;;;;;;;;5101866;27;61854;-83
2022/09/28 06:18:31;;;;;;;;;5.75;3.50;;;;;;;;5102757;27;61904;-83
2022/09/28 06:20:57;;;;;;;;;4.00;3.00;;;;;;;;5103046;27;62496;-82
2022/09/28 06:23:22;;;;;;;;;2.00;2.00;;;;;;;;5102621;27;61831;-82
2022/09/28 06:25:48;;;;;;;;;3.00;3.00;;;;;;;;5102152;27;62828;-83
2022/09/28 06:28:14;;;;;;;;;6.00;3.00;;;;;;;;5102293;27;61784;-83
2022/09/28 06:30:39;;;;;;;;;4.50;3.50;;;;;;;;5102739;27;61959;-82
2022/09/28 06:33:06;;;;;;;;;3.00;3.00;;;;;;;;5101163;27;61804;-82
2022/09/28 06:35:31;;;;;;;;;2.00;2.00;;;;;;;;5101466;27;63160;-82
2022/09/28 06:37:57;;;;;;;;;3.00;2.00;;;;;;;;5098744;27;61924;-82
2022/09/28 06:40:22;;;;;;;;;2.00;2.00;;;;;;;;5082375;27;61847;-82
2022/09/28 06:43:01;;;;;;;;;3.00;2.00;;;;;;;;5082434;27;61894;-84
2022/09/28 06:45:27;;;;;;;;;1.00;1.00;;;;;;;;5079640;28;65147;-83
2022/09/28 06:47:59;;;;;;;;;2.00;2.00;;;;;;;;5085146;27;61863;-83
2022/09/28 06:50:31;;;;;;;;;3.00;2.00;;;;;;;;5102081;27;62880;-82
2022/09/28 06:52:56;;;;;;;;;2.50;2.50;;;;;;;;5101728;27;62281;-82
2022/09/28 06:55:22;;;;;;;;;6.50;3.75;;;;;;;;5099226;27;63144;-82
2022/09/28 06:57:55;;;;;;;;;8.00;1.50;;;;;;;;5100143;27;61936;-82
2022/09/28 07:00:21;;;;;;;;;4.00;2.50;;;;;;;;5104943;27;61821;-82
2022/09/28 07:02:46;;;;;;;;;3.50;1.00;;;;;;;;5105465;27;61767;-82
2022/09/28 07:05:12;;;;;;;;;2.00;2.00;;;;;;;;5105200;27;61911;-82
2022/09/28 07:07:39;;;;;;;;;3.00;2.00;;;;;;;;5105647;27;61749;-83
2022/09/28 07:10:04;;;;;;;;;3.75;2.00;;;;;;;;5105978;27;61905;-82
2022/09/28 07:12:31;;;;;;;;;4.00;1.75;;;;;;;;5104303;27;62132;-82
2022/09/28 07:14:56;;;;;;;;;1.75;1.75;;;;;;;;5103746;27;63843;-82
2022/09/28 07:17:22;;;;;;;;;1.25;1.25;;;;;;;;5105213;27;61741;-82
2022/09/28 07:19:57;;;;;;;;;2.00;2.00;;;;;;;;5105462;27;61761;-83
2022/09/28 07:22:22;;;;;;;;;2.75;2.00;;;;;;;;5105919;27;61835;-82
2022/09/28 07:24:47;;;;;;;;;0.75;0.75;;;;;;;;5103016;27;64973;-83
2022/09/28 07:27:13;;;;;;;;;2.75;2.00;;;;;;;;5105726;27;61946;-82
2022/09/28 07:29:38;;;;;;;;;3.50;1.00;;;;;;;;5105247;27;61886;-82
2022/09/28 07:32:03;;;;;;;;;1.50;1.00;;;;;;;;5105616;27;61985;-82
2022/09/28 07:34:29;;;;;;;;;1.00;1.00;;;;;;;;5104424;27;62070;-82
2022/09/28 07:36:58;;;;;;;;;4.00;1.00;;;;;;;;5103861;27;62340;-82
2022/09/28 07:39:23;;;;;;;;;1.25;1.00;;;;;;;;5103410;27;61738;-82
2022/09/28 07:41:48;;;;;;;;;2.00;1.75;;;;;;;;5105078;27;61940;-81
2022/09/28 07:44:14;;;;;;;;;3.00;1.50;;;;;;;;5104360;27;63265;-82
2022/09/28 07:46:39;;;;;;;;;4.00;0.25;;;;;;;;5105151;27;61696;-82
2022/09/28 07:49:05;;;;;;;;;6.00;1.50;;;;;;;;5105294;27;62167;-82
2022/09/28 07:51:30;;;;;;;;;4.75;2.25;;;;;;;;5105088;27;62039;-82
2022/09/28 07:53:56;;;;;;;;;2.50;2.50;;;;;;;;5102841;27;62881;-81
2022/09/28 07:56:21;;;;;;;;;1.00;1.00;;;;;;;;5105233;27;61785;-81
2022/09/28 07:58:47;;;;;;;;;1.00;1.00;;;;;;;;5104162;27;61805;-82
2022/09/28 08:01:14;;;;;;;;;2.00;2.00;;;;;;;;5105191;27;61892;-82
2022/09/28 08:03:42;;;;;;;;;0.75;0.75;;;;;;;;5103861;27;62957;-82
2022/09/28 08:06:10;;;;;;;;;2.00;1.00;;;;;;;;5104817;27;61959;-81
2022/09/28 08:08:35;;;;;;;;;1.00;1.00;;;;;;;;5105103;27;61862;-81
2022/09/28 08:11:01;;;;;;;;;1.00;0.00;;;;;;;;5105028;27;61818;-81
2022/09/28 08:13:26;;;;;;;;;1.00;1.00;;;;;;;;5103958;27;62149;-82
2022/09/28 08:15:52;;;;;;;;;1.00;1.00;;;;;;;;5104603;27;62388;-81
2022/09/28 08:18:18;;;;;;;;;1.25;0.50;;;;;;;;5104632;27;61875;-81
2022/09/28 08:23:27;;;;;;;;;4.00;1.75;;;;;;;;5103588;27;62207;-81
2022/09/28 08:25:53;;;;;;;;;2.75;0.50;;;;;;;;5104101;27;61984;-81
2022/09/28 08:28:18;;;;;;;;;3.00;1.00;;;;;;;;5104649;27;61950;-81
2022/09/28 08:30:44;;;;;;;;;3.75;2.00;;;;;;;;5104069;27;62166;-81
2022/09/28 08:33:13;;;;;;;;;3.25;1.00;;;;;;;;5103766;27;61919;-81
2022/09/28 08:35:40;;;;;;;;;6.25;1.00;;;;;;;;5104282;27;61677;-81
2022/09/28 08:38:05;;;;;;;;;1.50;1.50;;;;;;;;5104304;27;61946;-82
2022/09/28 08:40:34;;;;;;;;;0.75;0.75;;;;;;;;5104486;27;61999;-83
2022/09/28 08:43:03;;;;;;;;;0.00;0.00;;;;;;;;5103834;27;62136;-81
2022/09/28 08:45:29;;;;;;;;;1.50;1.50;;;;;;;;5104003;27;61782;-81
2022/09/28 08:50:51;;;;;;;;;2.25;1.00;;;;;;;;5104579;27;61931;-82
2022/09/28 08:53:17;;;;;;;;;1.50;0.00;;;;;;;;5103329;27;62130;-80
2022/09/28 08:55:44;;;;;;;;;1.25;1.00;;;;;;;;5102287;27;61872;-80
2022/09/28 08:58:14;;;;;;;;;2.00;0.75;;;;;;;;5104177;27;61886;-81
2022/09/28 09:00:47;;;;;;;;;0.75;0.75;;;;;;;;5104391;27;61858;-81
2022/09/28 09:03:15;;;;;;;;;1.00;1.00;;;;;;;;5103220;27;62046;-82
2022/09/28 09:06:06;;;;;;;;;1.00;1.00;;;;;;;;5103743;27;61886;-82
2022/09/28 09:08:52;;;;;;;;;0.50;0.25;;;;;;;;5100298;27;61988;-80
2022/09/28 09:11:23;;;;;;;;;4.00;1.00;;;;;;;;5099446;27;61892;-80
2022/09/28 09:14:01;;;;;;;;;0.00;0.00;;;;;;;;5102639;27;63224;-80
2022/09/28 09:16:29;;;;;;;;;1.00;1.00;;;;;;;;5088139;27;61806;-80
2022/09/28 09:19:01;;;;;;;;;0.00;0.00;;;;;;;;5100493;27;62114;-79
2022/09/28 09:21:45;;;;;;;;;2.00;0.25;;;;;;;;5100052;27;62173;-79
2022/09/28 09:24:25;;;;;;;;;0.25;0.25;;;;;;;;5098595;27;61938;-80
2022/09/28 09:26:58;;;;;;;;;1.00;1.00;;;;;;;;5099926;27;61869;-80
2022/09/28 09:29:26;;;;;;;;;1.00;1.00;;;;;;;;5102216;27;61949;-80
2022/09/28 09:32:13;;;;;;;;;4.00;1.00;;;;;;;;5102185;27;61773;-80
2022/09/28 09:34:45;;;;;;;;;1.50;0.00;;;;;;;;5097363;27;61794;-80
2022/09/28 09:37:15;;;;;;;;;1.00;1.00;;;;;;;;5099423;27;62034;-80
2022/09/28 09:40:19;;;;;;;;;1.50;1.25;;;;;;;;5102055;27;62013;-79
2022/09/28 09:43:01;;;;;;;;;2.25;1.75;;;;;;;;5058883;28;61984;-79
2022/09/28 09:45:45;;;;;;;;;2.25;1.00;;;;;;;;5057976;28;62055;-79
2022/09/28 09:48:17;;;;;;;;;1.00;1.00;;;;;;;;5055685;28;62315;-79
2022/09/28 09:50:45;;;;;;;;;6.00;0.75;;;;;;;;5058436;28;61949;-79
2022/09/28 09:53:18;;;;;;;;;2.00;1.00;;;;;;;;5058122;28;61844;-79
2022/09/28 09:55:49;;;;;;;;;1.25;1.25;;;;;;;;5057919;28;61812;-79
2022/09/28 09:58:18;;;;;;;;;1.00;1.00;;;;;;;;5040932;28;62273;-80
2022/09/28 10:00:46;;;;;;;;;1.25;1.00;;;;;;;;5058351;28;61948;-78
2022/09/28 10:03:18;;;;;;;;;1.25;1.00;;;;;;;;5057934;28;62007;-78
2022/09/28 10:05:46;;;;;;;;;0.75;0.75;;;;;;;;5057502;28;62865;-79
2022/09/28 10:08:16;;;;;;;;;0.75;0.75;;;;;;;;5057738;28;62327;-79
2022/09/28 10:10:50;;;;;;;;;1.00;1.00;;;;;;;;5042662;28;62039;-79
2022/09/28 10:13:16;;;;;;;;;1.00;1.00;;;;;;;;5076510;27;61779;-80
2022/09/28 10:15:41;;;;;;;;;0.00;0.00;;;;;;;;5102440;27;62833;-77
2022/09/28 10:18:10;;;;;;;;;2.75;0.00;;;;;;;;5102180;27;61766;-77
2022/09/28 10:20:37;;;;;;;;;1.50;1.50;;;;;;;;5102913;27;61917;-78
2022/09/28 10:23:10;;;;;;;;;2.00;0.50;;;;;;;;5102217;27;61793;-78
2022/09/28 10:25:37;;;;;;;;;2.00;1.00;;;;;;;;5101978;27;61771;-78
2022/09/28 10:28:05;;;;;;;;;0.00;0.00;;;;;;;;5102151;27;61801;-77
2022/09/28 10:30:33;;;;;;;;;1.00;1.00;;;;;;;;5102860;27;61891;-80
2022/09/28 10:33:00;;;;;;;;;0.00;0.00;;;;;;;;5102275;27;61836;-78
2022/09/28 10:35:26;;;;;;;;;0.75;0.75;;;;;;;;5100342;27;63479;-79
2022/09/28 10:37:53;;;;;;;;;0.00;0.00;;;;;;;;5102000;27;61749;-78
2022/09/28 10:40:26;;;;;;;;;0.75;0.75;;;;;;;;5102038;27;61955;-77
2022/09/28 10:42:58;;;;;;;;;3.25;0.25;;;;;;;;5102604;27;62051;-77
2022/09/28 10:45:23;;;;;;;;;0.00;0.00;;;;;;;;5101842;27;62606;-76
2022/09/28 10:47:49;;;;;;;;;3.00;1.00;;;;;;;;5102110;27;61957;-78
2022/09/28 10:50:25;;;;;;;;;0.00;0.00;;;;;;;;5102238;27;61722;-77
2022/09/28 10:52:51;;;;;;;;;1.25;1.25;;;;;;;;5102434;27;61724;-77
2022/09/28 10:55:27;;;;;;;;;1.00;1.00;;;;;;;;5101538;27;61962;-77
2022/09/28 10:57:53;;;;;;;;;0.00;0.00;;;;;;;;5102016;27;61904;-79
2022/09/28 11:00:44;;;;;;;;;1.00;1.00;;;;;;;;5102043;27;62088;-79
2022/09/28 11:03:26;;;;;;;;;2.00;1.00;;;;;;;;5099805;27;61847;-76
2022/09/28 11:05:53;;;;;;;;;1.50;1.50;;;;;;;;5095729;27;63697;-75
2022/09/28 11:08:22;;;;;;;;;2.75;2.75;;;;;;;;5100265;27;62139;-76
2022/09/28 11:11:00;;;;;;;;;4.00;4.00;;;;;;;;5100505;27;61959;-80
2022/09/28 11:13:26;;;;;;;;;1.00;1.00;;;;;;;;5100719;27;61830;-77
2022/09/28 11:15:52;;;;;;;;;0.75;0.75;;;;;;;;5097497;27;63166;-78
2022/09/28 11:18:31;;;;;;;;;0.00;0.00;;;;;;;;5098364;27;62243;-78
2022/09/28 11:21:07;;;;;;;;;0.00;0.00;;;;;;;;5100306;27;61962;-78
2022/09/28 11:23:32;;;;;;;;;1.25;0.25;;;;;;;;5098726;27;62005;-77
2022/09/28 11:26:01;;;;;;;;;2.00;0.75;;;;;;;;5099869;27;62977;-76
2022/09/28 11:28:32;;;;;;;;;2.00;2.00;;;;;;;;5100065;27;62001;-76
2022/09/28 11:30:58;;;;;;;;;0.00;0.00;;;;;;;;5100163;27;61786;-77
2022/09/28 11:33:23;;;;;;;;;1.00;1.00;;;;;;;;5098807;27;61907;-77
2022/09/28 11:35:53;;;;;;;;;2.00;1.00;;;;;;;;5099239;27;62899;-78
2022/09/28 11:38:28;;;;;;;;;0.00;0.00;;;;;;;;5099452;27;62003;-77
2022/09/28 11:41:09;;;;;;;;;0.25;0.00;;;;;;;;5100073;27;62005;-80
2022/09/28 11:43:59;;;;;;;;;1.50;0.00;;;;;;;;5099285;27;61777;-77
2022/09/28 11:46:30;;;;;;;;;0.00;0.00;;;;;;;;5100288;27;61926;-77
2022/09/28 11:49:04;;;;;;;;;0.00;0.00;;;;;;;;5103076;27;61896;-78
2022/09/28 11:51:30;;;;;;;;;2.00;0.75;;;;;;;;5099907;27;62392;-78
2022/09/28 11:54:00;;;;;;;;;1.75;0.00;;;;;;;;5102511;27;61694;-79
2022/09/28 11:56:37;;;;;;;;;1.00;1.00;;;;;;;;5102510;27;62127;-77
2022/09/28 11:59:05;;;;;;;;;2.25;1.00;;;;;;;;5101154;27;62114;-78
2022/09/28 12:01:37;;;;;;;;;3.00;1.00;;;;;;;;5102881;27;62117;-77
2022/09/28 12:04:07;;;;;;;;;3.75;2.50;;;;;;;;5103601;27;61741;-77
2022/09/28 12:06:39;;;;;;;;;4.75;1.50;;;;;;;;5102429;27;62190;-77
2022/09/28 12:09:10;;;;;;;;;2.25;0.50;;;;;;;;5103487;27;62083;-77
2022/09/28 12:11:38;;;;;;;;;1.25;0.25;;;;;;;;5104697;27;62259;-78
2022/09/28 12:14:05;;;;;;;;;1.50;0.00;;;;;;;;5104709;27;61735;-78
2022/09/28 12:16:35;;;;;;;;;2.00;0.75;;;;;;;;5102657;27;62079;-77
2022/09/28 12:19:04;;;;;;;;;0.00;0.00;;;;;;;;5103311;27;62154;-78
2022/09/28 12:21:33;;;;;;;;;1.00;1.00;;;;;;;;5104009;27;62163;-78
2022/09/28 12:24:09;;;;;;;;;1.75;1.00;;;;;;;;5103164;27;61891;-78
2022/09/28 12:26:37;;;;;;;;;0.75;0.75;;;;;;;;5101227;27;63275;-78
2022/09/28 12:29:05;;;;;;;;;0.00;0.00;;;;;;;;5102384;27;61866;-78
2022/09/28 12:31:35;;;;;;;;;2.00;0.50;;;;;;;;5101018;27;62295;-78
2022/09/28 12:34:01;;;;;;;;;0.50;0.50;;;;;;;;5101503;27;62639;-78
2022/09/28 12:36:29;;;;;;;;;0.25;0.25;;;;;;;;5103427;27;62089;-79
2022/09/28 12:39:12;;;;;;;;;1.00;1.00;;;;;;;;5103464;27;61795;-77
2022/09/28 12:41:46;;;;;;;;;5.00;1.00;;;;;;;;5102807;27;61952;-77
2022/09/28 12:44:16;;;;;;;;;1.00;1.00;;;;;;;;5103498;27;61867;-77
2022/09/28 12:46:50;;;;;;;;;0.75;0.75;;;;;;;;5102635;27;62485;-77
2022/09/28 12:49:43;;;;;;;;;1.67;0.00;;;;;;;;5101087;27;61951;-77
2022/09/28 12:52:20;;;;;;;;;0.50;0.25;;;;;;;;5036509;28;61866;-78
2022/09/28 12:54:55;;;;;;;;;1.00;1.00;;;;;;;;5039224;28;62108;-78
2022/09/28 12:57:30;;;;;;;;;0.67;0.67;;;;;;;;5019337;28;62266;-79
2022/09/28 13:00:10;;;;;;;;;1.00;0.67;;;;;;;;5040229;28;61899;-79
2022/09/28 13:02:54;;;;;;;;;1.00;1.00;;;;;;;;5033780;28;61897;-78
2022/09/28 13:05:39;;;;;;;;;1.00;1.00;;;;;;;;5040166;28;61808;-79
2022/09/28 13:08:10;;;;;;;;;0.00;0.00;;;;;;;;5039565;28;61870;-78
2022/09/28 13:10:35;;;;;;;;;0.00;0.00;;;;;;;;5040297;28;61930;-78
2022/09/28 13:13:01;;;;;;;;;0.67;0.67;;;;;;;;5040561;28;62146;-78
2022/09/28 13:15:34;;;;;;;;;0.33;0.33;;;;;;;;5040563;28;62099;-79
2022/09/28 13:18:03;;;;;;;;;2.67;1.33;;;;;;;;5038951;28;61929;-78
2022/09/28 13:20:38;;;;;;;;;0.67;0.67;;;;;;;;5040102;28;61928;-78
2022/09/28 13:23:15;;;;;;;;;1.33;1.33;;;;;;;;5039443;28;61919;-77
2022/09/28 13:25:54;;;;;;;;;1.00;1.00;;;;;;;;5037611;28;62186;-77
2022/09/28 13:28:21;;;;;;;;;0.33;0.33;;;;;;;;5038184;27;63038;-77
2022/09/28 13:30:47;;;;;;;;;2.00;1.00;;;;;;;;5102681;27;62156;-77
2022/09/28 13:33:34;;;;;;;;;0.25;0.25;;;;;;;;5103231;27;62090;-77
2022/09/28 13:36:03;;;;;;;;;0.00;0.00;;;;;;;;5103465;27;61826;-77
2022/09/28 13:38:29;;;;;;;;;0.00;0.00;;;;;;;;5102709;27;61919;-77
2022/09/28 13:41:03;;;;;;;;;0.33;0.00;;;;;;;;5103191;27;61828;-77
2022/09/28 13:43:34;;;;;;;;;0.00;0.00;;;;;;;;5102485;27;61729;-77
2022/09/28 13:46:04;;;;;;;;;0.75;0.75;;;;;;;;5102201;27;61819;-76
2022/09/28 13:48:47;;;;;;;;;1.75;0.25;;;;;;;;5100455;27;62133;-76
2022/09/28 13:51:27;;;;;;;;;1.00;0.33;;;;;;;;5102535;27;62004;-76
2022/09/28 13:54:02;;;;;;;;;1.00;1.00;;;;;;;;5102040;27;61896;-76
2022/09/28 13:56:48;;;;;;;;;0.00;0.00;;;;;;;;5101414;27;61653;-76
2022/09/28 13:59:24;;;;;;;;;4.25;3.00;;;;;;;;5102233;27;61922;-77
2022/09/28 14:01:56;;;;;;;;;6.50;5.75;;;;;;;;5102029;27;61795;-77
2022/09/28 14:04:22;;;;;;;;;7.50;6.50;;;;;;;;5102507;27;61884;-76
2022/09/28 14:06:49;;;;;;;;;8.75;4.25;;;;;;;;5101257;27;61775;-76
2022/09/28 14:09:14;;;;;;;;;1.00;1.00;;;;;;;;5101574;27;62112;-76
2022/09/28 14:11:53;;;;;;;;;6.50;4.25;;;;;;;;5102357;27;61982;-76
2022/09/28 14:14:23;;;;;;;;;2.25;2.25;;;;;;;;5102633;27;61804;-76
2022/09/28 14:16:50;;;;;;;;;3.00;2.75;;;;;;;;5102667;27;61880;-76
2022/09/28 14:19:23;;;;;;;;;2.00;2.00;;;;;;;;5101739;27;61810;-75
2022/09/28 14:22:10;;;;;;;;;2.50;2.50;;;;;;;;5102534;27;61768;-75
2022/09/28 14:24:43;;;;;;;;;2.00;0.25;;;;;;;;5081913;28;61766;-76
2022/09/28 14:27:17;;;;;;;;;1.75;0.75;;;;;;;;5081756;27;61742;-76
2022/09/28 14:29:43;;;;;;;;;0.50;0.50;;;;;;;;5080924;28;61805;-76
2022/09/28 14:32:08;;;;;;;;;1.50;1.00;;;;;;;;5082372;27;61769;-76
2022/09/28 14:34:39;;;;;;;;;1.00;1.00;;;;;;;;5081911;28;62508;-76
2022/09/28 14:43:19;;;;;;;;;0.75;0.75;;;;;;;;5099552;27;61801;-76
2022/09/28 14:45:44;;;;;;;;;0.00;0.00;;;;;;;;5096849;27;61979;-76
2022/09/28 14:48:14;;;;;;;;;0.75;0.75;;;;;;;;5100822;27;61902;-76
2022/09/28 14:50:39;;;;;;;;;0.00;0.00;;;;;;;;5100630;27;61840;-76
2022/09/28 14:53:09;;;;;;;;;0.75;0.75;;;;;;;;5100617;27;61773;-76
2022/09/28 14:55:48;;;;;;;;;0.00;0.00;;;;;;;;5101239;27;62364;-76
2022/09/28 14:58:21;;;;;;;;;0.00;0.00;;;;;;;;5099506;27;61906;-76
2022/09/28 15:00:48;;;;;;;;;1.00;0.67;;;;;;;;5097941;27;61840;-76
2022/09/28 15:03:14;;;;;;;;;0.00;0.00;;;;;;;;5100532;27;62090;-77
2022/09/28 15:05:45;;;;;;;;;0.00;0.00;;;;;;;;5100796;27;61754;-78
2022/09/28 15:08:11;;;;;;;;;0.00;0.00;;;;;;;;5102620;27;61704;-77
2022/09/28 15:10:38;;;;;;;;;0.00;0.00;;;;;;;;5101860;27;62739;-77